Time;durP1;ratioP1;P1;durP2;ratioP2;P2;SDS_P1;SDS_P2;PMS_P1;PMS_P2;Temp;Humidity;BMP_temperature;BMP_pressure;BME280_temperature;BME280_humidity;BME280_pressure;Samples;Min_cycle;Max_cycle;Signal;HPM_P1;HPM_P2
2023/04/15 00:02:22;;;;;;;7.50;1.97;;;5.10;99.90;;;;;;5071598;28;20623;-71
2023/04/15 00:04:48;;;;;;;5.63;1.97;;;5.10;99.90;;;;;;5069983;28;20190;-72
2023/04/15 00:07:13;;;;;;;4.73;2.00;;;5.00;99.90;;;;;;5071514;28;20175;-72
2023/04/15 00:09:41;;;;;;;2.20;1.80;;;5.00;99.90;;;;;;5071860;28;20674;-72
2023/04/15 00:12:08;;;;;;;3.07;1.83;;;4.90;99.90;;;;;;5071447;28;20228;-71
2023/04/15 00:14:37;;;;;;;5.43;1.77;;;4.90;99.90;;;;;;5071433;28;20410;-72
2023/04/15 00:17:03;;;;;;;3.10;2.00;;;4.80;99.90;;;;;;5069560;28;20429;-71
2023/04/15 00:19:30;;;;;;;8.33;2.50;;;4.90;99.90;;;;;;5070550;28;20432;-72
2023/04/15 00:21:56;;;;;;;10.73;2.27;;;4.90;99.90;;;;;;5070609;28;20414;-72
2023/04/15 00:24:22;;;;;;;4.00;1.70;;;4.90;99.90;;;;;;5085871;28;20421;-72
2023/04/15 00:26:48;;;;;;;4.50;1.93;;;4.60;99.90;;;;;;5068735;28;20473;-72
2023/04/15 00:29:14;;;;;;;4.73;1.93;;;4.50;99.90;;;;;;5070231;28;20421;-71
2023/04/15 00:31:40;;;;;;;3.67;1.53;;;4.40;99.90;;;;;;5085340;28;20517;-72
2023/04/15 00:34:06;;;;;;;3.50;1.77;;;4.50;99.90;;;;;;5068094;28;20440;-72
2023/04/15 00:36:32;;;;;;;7.20;1.83;;;4.50;99.90;;;;;;5069774;28;20574;-71
2023/04/15 00:38:58;;;;;;;13.95;2.00;;;4.60;99.90;;;;;;5069414;28;20568;-72
2023/04/15 00:41:24;;;;;;;8.50;2.40;;;4.50;99.90;;;;;;5069409;28;20187;-72
2023/04/15 00:43:50;;;;;;;4.83;1.90;;;4.50;99.90;;;;;;5067671;28;20649;-72
2023/04/15 00:46:18;;;;;;;2.60;1.60;;;4.50;99.90;;;;;;5069031;28;20465;-72
2023/04/15 00:48:44;;;;;;;2.70;1.80;;;4.50;99.90;;;;;;5068935;28;20181;-72
2023/04/15 00:51:10;;;;;;;4.87;1.90;;;4.40;99.90;;;;;;5067693;28;20428;-72
2023/04/15 00:53:35;;;;;;;1.50;1.40;;;4.30;99.90;;;;;;5068924;28;21032;-71
2023/04/15 00:56:01;;;;;;;8.27;2.03;;;4.10;99.90;;;;;;5067184;28;20190;-72
2023/04/15 00:58:27;;;;;;;3.73;1.70;;;4.00;99.90;;;;;;5067273;28;20194;-72
2023/04/15 01:00:54;;;;;;;5.90;1.60;;;3.80;99.90;;;;;;5068713;28;20196;-71
2023/04/15 01:03:20;;;;;;;3.77;1.50;;;3.90;99.90;;;;;;5068514;28;21212;-71
2023/04/15 01:05:46;;;;;;;6.10;2.20;;;4.00;99.90;;;;;;5068534;28;20470;-72
2023/04/15 01:08:11;;;;;;;6.73;1.70;;;4.00;99.90;;;;;;5068635;28;20179;-72
2023/04/15 01:10:38;;;;;;;3.30;1.30;;;4.10;99.90;;;;;;5068606;28;20292;-72
2023/04/15 01:13:04;;;;;;;1.43;1.33;;;4.10;99.90;;;;;;5068269;28;20452;-72
2023/04/15 01:15:30;;;;;;;5.00;1.80;;;4.20;99.90;;;;;;5068557;28;20417;-72
2023/04/15 01:17:57;;;;;;;2.50;1.70;;;4.10;99.90;;;;;;5066583;28;20783;-72
2023/04/15 01:20:23;;;;;;;2.60;1.83;;;4.10;99.90;;;;;;5068358;28;20426;-72
2023/04/15 01:22:50;;;;;;;11.50;1.73;;;4.10;99.90;;;;;;5066831;28;20826;-73
2023/04/15 01:25:26;;;;;;;9.13;2.40;;;4.10;99.90;;;;;;5066415;28;20619;-72
2023/04/15 01:27:51;;;;;;;5.32;1.60;;;4.10;99.90;;;;;;5068179;28;20178;-71
2023/04/15 01:30:17;;;;;;;9.13;2.10;;;4.10;99.90;;;;;;5068188;28;20658;-72
2023/04/15 01:32:43;;;;;;;3.33;2.10;;;4.00;99.90;;;;;;5068114;28;20201;-72
2023/04/15 01:35:09;;;;;;;2.03;1.40;;;4.00;99.90;;;;;;5066891;28;20653;-71
2023/04/15 01:37:35;;;;;;;3.43;1.30;;;4.00;99.90;;;;;;5067176;28;20590;-72
2023/04/15 01:40:02;;;;;;;3.30;1.93;;;3.90;99.90;;;;;;5068111;28;20533;-72
2023/04/15 01:42:27;;;;;;;7.60;1.93;;;4.00;99.90;;;;;;5068456;28;20432;-71
2023/04/15 01:44:53;;;;;;;3.80;1.90;;;3.90;99.90;;;;;;5068396;28;20884;-72
2023/04/15 01:47:19;;;;;;;4.50;1.77;;;3.90;99.90;;;;;;5067129;28;20193;-72
2023/04/15 01:49:46;;;;;;;2.70;1.58;;;3.80;99.90;;;;;;5068480;28;20543;-72
2023/04/15 01:52:11;;;;;;;5.20;1.70;;;3.60;99.90;;;;;;5066804;28;20630;-71
2023/04/15 01:54:37;;;;;;;4.20;1.90;;;3.50;99.90;;;;;;5066832;28;20195;-70
2023/04/15 01:57:04;;;;;;;3.70;2.27;;;3.40;99.90;;;;;;5066345;28;20197;-70
2023/04/15 01:59:30;;;;;;;7.00;1.60;;;3.50;99.90;;;;;;5067667;28;20865;-72
2023/04/15 02:01:56;;;;;;;3.92;1.90;;;3.60;99.90;;;;;;5067030;28;20432;-72
2023/04/15 02:04:22;;;;;;;5.27;2.20;;;3.70;99.90;;;;;;5066096;28;20193;-72
2023/04/15 02:06:48;;;;;;;3.57;1.40;;;3.70;99.90;;;;;;5066181;28;20225;-72
2023/04/15 02:09:13;;;;;;;4.33;1.13;;;3.80;99.90;;;;;;5065944;28;20497;-71
2023/04/15 02:11:39;;;;;;;4.10;1.67;;;3.80;99.90;;;;;;5067575;28;20268;-72
2023/04/15 02:14:05;;;;;;;3.13;1.73;;;3.90;99.90;;;;;;5066238;28;20195;-71
2023/04/15 02:16:31;;;;;;;3.03;1.63;;;4.00;99.90;;;;;;5067832;28;20183;-72
2023/04/15 02:18:58;;;;;;;6.23;1.67;;;4.00;99.90;;;;;;5066507;28;20425;-73
2023/04/15 02:21:25;;;;;;;6.10;1.93;;;3.90;99.90;;;;;;5067669;28;20424;-73
2023/04/15 02:23:52;;;;;;;3.83;1.80;;;3.90;99.90;;;;;;5066657;28;20442;-74
2023/04/15 02:26:18;;;;;;;5.67;1.80;;;3.90;99.90;;;;;;5068076;28;21296;-73
2023/04/15 02:28:44;;;;;;;3.43;1.83;;;3.90;99.90;;;;;;5065853;28;20436;-72
2023/04/15 02:31:09;;;;;;;6.10;2.10;;;3.90;99.90;;;;;;5066079;28;20184;-72
2023/04/15 02:33:36;;;;;;;4.10;1.60;;;3.80;99.90;;;;;;5067316;28;20204;-72
2023/04/15 02:36:02;;;;;;;2.40;1.53;;;3.80;99.90;;;;;;5067203;28;20189;-71
2023/04/15 02:38:28;;;;;;;4.77;1.60;;;3.80;99.90;;;;;;5067344;28;20421;-72
2023/04/15 02:40:54;;;;;;;6.80;1.73;;;3.70;99.90;;;;;;5065622;28;20458;-72
2023/04/15 02:43:19;;;;;;;3.57;1.13;;;3.70;99.90;;;;;;5067094;28;20590;-72
2023/04/15 02:45:46;;;;;;;8.83;2.00;;;3.70;99.90;;;;;;5065635;28;20468;-72
2023/04/15 02:48:11;;;;;;;2.90;1.77;;;3.60;99.90;;;;;;5067087;28;20184;-71
2023/04/15 02:50:40;;;;;;;6.40;2.00;;;3.60;99.90;;;;;;5067152;28;20417;-72
2023/04/15 02:53:06;;;;;;;7.13;2.20;;;3.50;99.90;;;;;;5065769;28;20847;-72
2023/04/15 02:55:31;;;;;;;5.73;1.97;;;3.50;99.90;;;;;;5067158;28;20424;-72
2023/04/15 02:57:59;;;;;;;5.17;1.30;;;3.40;99.90;;;;;;5067075;28;20428;-72
2023/04/15 03:00:25;;;;;;;7.53;2.03;;;3.40;99.90;;;;;;5067060;28;20240;-72
2023/04/15 03:02:55;;;;;;;6.05;1.80;;;3.40;99.90;;;;;;5065345;28;20444;-72
2023/04/15 03:05:24;;;;;;;3.47;1.70;;;3.40;99.90;;;;;;5066674;28;20690;-72
2023/04/15 03:07:50;;;;;;;6.57;2.20;;;3.40;99.90;;;;;;5082114;28;20427;-72
2023/04/15 03:10:16;;;;;;;5.18;1.90;;;3.40;99.90;;;;;;5066622;28;20193;-71
2023/04/15 03:12:42;;;;;;;4.97;2.87;;;3.40;99.90;;;;;;5064988;28;20858;-72
2023/04/15 03:15:09;;;;;;;5.77;2.80;;;3.40;99.90;;;;;;5070726;28;20182;-72
2023/04/15 03:17:34;;;;;;;3.83;2.58;;;3.40;99.90;;;;;;5070636;28;20521;-72
2023/04/15 03:20:05;;;;;;;4.13;2.57;;;3.40;99.90;;;;;;5070805;28;20210;-72
2023/04/15 03:22:31;;;;;;;2.70;2.17;;;3.40;99.90;;;;;;5070403;28;20847;-71
2023/04/15 03:24:57;;;;;;;2.70;1.80;;;3.30;99.90;;;;;;5068887;28;20846;-72
2023/04/15 03:27:23;;;;;;;4.17;2.27;;;3.30;99.90;;;;;;5070654;28;21161;-72
2023/04/15 03:29:48;;;;;;;6.87;2.40;;;3.30;99.90;;;;;;5070838;28;20190;-71
2023/04/15 03:32:14;;;;;;;11.03;2.47;;;3.30;99.90;;;;;;5071163;28;20464;-71
2023/04/15 03:34:40;;;;;;;7.90;1.60;;;3.30;99.90;;;;;;5071876;28;20181;-71
2023/04/15 03:37:06;;;;;;;3.00;2.08;;;3.20;99.90;;;;;;5070508;28;20605;-71
2023/04/15 03:39:32;;;;;;;4.90;2.10;;;3.30;99.90;;;;;;5071589;28;20263;-71
2023/04/15 03:41:58;;;;;;;5.43;2.13;;;3.30;99.90;;;;;;5070088;28;20232;-72
2023/04/15 03:44:25;;;;;;;4.20;2.30;;;3.30;99.90;;;;;;5071482;28;20178;-71
2023/04/15 03:46:51;;;;;;;5.30;2.27;;;3.20;99.90;;;;;;5071228;28;20586;-71
2023/04/15 03:49:18;;;;;;;5.20;2.27;;;3.10;99.90;;;;;;5070007;28;20544;-71
2023/04/15 03:51:44;;;;;;;5.40;2.92;;;3.10;99.90;;;;;;5070124;28;20174;-71
2023/04/15 03:54:10;;;;;;;3.80;2.10;;;3.10;99.90;;;;;;5071648;28;20571;-71
2023/04/15 03:56:36;;;;;;;5.05;2.35;;;3.10;99.90;;;;;;5071728;28;20793;-71
2023/04/15 03:59:01;;;;;;;4.83;2.60;;;3.20;99.90;;;;;;5071832;28;20191;-71
2023/04/15 04:01:27;;;;;;;3.70;2.00;;;3.20;99.90;;;;;;5070432;28;20744;-71
2023/04/15 04:03:53;;;;;;;6.90;2.43;;;3.20;99.90;;;;;;5071623;28;20309;-70
2023/04/15 04:06:19;;;;;;;4.03;2.20;;;3.20;99.90;;;;;;5071802;28;20205;-71
2023/04/15 04:08:44;;;;;;;2.77;2.33;;;3.10;99.90;;;;;;5071995;28;20535;-71
2023/04/15 04:11:10;;;;;;;5.00;2.00;;;3.10;99.90;;;;;;5071847;28;20420;-72
2023/04/15 04:13:36;;;;;;;9.70;2.80;;;3.00;99.90;;;;;;5071805;28;20280;-71
2023/04/15 04:16:03;;;;;;;5.20;2.03;;;3.10;99.90;;;;;;5071927;28;20190;-71
2023/04/15 04:18:30;;;;;;;5.77;2.13;;;3.00;99.90;;;;;;5071522;28;20200;-71
2023/04/15 04:20:55;;;;;;;2.40;2.13;;;3.00;99.90;;;;;;5069696;28;20432;-71
2023/04/15 04:23:21;;;;;;;3.20;2.10;;;2.90;99.90;;;;;;5070960;28;20260;-71
2023/04/15 04:25:47;;;;;;;3.90;1.87;;;2.70;99.90;;;;;;5068879;28;20460;-71
2023/04/15 04:28:12;;;;;;;4.43;2.63;;;2.60;99.90;;;;;;5070897;28;20192;-71
2023/04/15 04:30:38;;;;;;;4.40;2.50;;;2.60;99.90;;;;;;5069529;28;20186;-70
2023/04/15 04:33:04;;;;;;;4.45;2.50;;;2.70;99.90;;;;;;5070648;28;20193;-71
2023/04/15 04:35:32;;;;;;;4.40;2.70;;;2.80;99.90;;;;;;5070805;28;20679;-71
2023/04/15 04:37:58;;;;;;;3.42;2.80;;;2.80;99.90;;;;;;5070885;28;20451;-71
2023/04/15 04:40:23;;;;;;;5.33;2.37;;;2.80;99.90;;;;;;5070463;28;20249;-71
2023/04/15 04:42:49;;;;;;;4.10;2.33;;;2.80;99.90;;;;;;5070991;28;20683;-71
2023/04/15 04:45:14;;;;;;;6.50;2.83;;;2.80;99.90;;;;;;5071638;28;20287;-71
2023/04/15 04:47:40;;;;;;;5.00;2.33;;;2.80;99.90;;;;;;5071715;28;20240;-71
2023/04/15 04:50:06;;;;;;;9.70;3.07;;;2.80;99.90;;;;;;5070660;28;20184;-71
2023/04/15 04:52:32;;;;;;;6.30;2.70;;;2.80;99.90;;;;;;5087515;28;20200;-71
2023/04/15 04:54:57;;;;;;;6.33;2.70;;;2.80;99.90;;;;;;5072021;28;20463;-72
2023/04/15 04:57:23;;;;;;;6.63;2.63;;;2.80;99.90;;;;;;5071159;28;20262;-72
2023/04/15 04:59:48;;;;;;;6.70;2.70;;;2.80;99.90;;;;;;5074025;28;20200;-71
2023/04/15 05:02:14;;;;;;;5.53;2.33;;;2.70;99.90;;;;;;5073372;28;20189;-71
2023/04/15 05:04:40;;;;;;;5.17;2.30;;;2.80;99.90;;;;;;5073881;28;20641;-71
2023/04/15 05:07:06;;;;;;;5.83;2.33;;;2.80;99.90;;;;;;5071952;28;20498;-71
2023/04/15 05:09:32;;;;;;;9.23;2.67;;;2.80;99.90;;;;;;5055806;28;20196;-72
2023/04/15 05:11:57;;;;;;;7.07;3.17;;;2.80;99.90;;;;;;5071360;28;20189;-71
2023/04/15 05:14:23;;;;;;;12.10;3.80;;;2.80;99.90;;;;;;5071568;28;20421;-72
2023/04/15 05:16:48;;;;;;;3.10;2.50;;;2.90;99.90;;;;;;5071296;28;20727;-71
2023/04/15 05:19:14;;;;;;;3.43;2.83;;;2.80;99.90;;;;;;5070609;28;20193;-71
2023/04/15 05:21:40;;;;;;;8.20;3.27;;;2.80;99.90;;;;;;5069931;28;20200;-71
2023/04/15 05:24:05;;;;;;;8.57;2.70;;;2.90;99.90;;;;;;5071189;28;20216;-71
2023/04/15 05:26:31;;;;;;;9.47;3.17;;;2.90;99.90;;;;;;5070212;28;20261;-71
2023/04/15 05:28:57;;;;;;;7.40;2.93;;;3.20;99.90;;;;;;5071463;28;20484;-72
2023/04/15 05:31:22;;;;;;;11.27;4.43;;;3.20;99.90;;;;;;5071269;28;20184;-71
2023/04/15 05:33:48;;;;;;;10.03;4.80;;;3.20;99.90;;;;;;5070606;28;20890;-71
2023/04/15 05:36:14;;;;;;;10.73;3.13;;;3.20;99.90;;;;;;5069460;28;20721;-71
2023/04/15 05:38:40;;;;;;;3.33;2.30;;;3.20;99.90;;;;;;5069975;28;20181;-72
2023/04/15 05:41:06;;;;;;;5.38;2.47;;;3.20;99.90;;;;;;5068573;28;20585;-72
2023/04/15 05:43:32;;;;;;;9.00;3.80;;;3.20;99.90;;;;;;5068409;28;20193;-72
2023/04/15 05:45:57;;;;;;;6.80;4.00;;;3.20;99.90;;;;;;5069589;28;20211;-72
2023/04/15 05:48:23;;;;;;;12.93;4.27;;;3.20;99.90;;;;;;5069811;28;20236;-71
2023/04/15 05:50:48;;;;;;;8.43;4.60;;;3.20;99.90;;;;;;5069708;28;20262;-72
2023/04/15 05:53:14;;;;;;;8.93;2.93;;;3.20;99.90;;;;;;5069438;28;20675;-72
2023/04/15 05:55:40;;;;;;;2.47;2.13;;;3.20;99.90;;;;;;5069436;28;20652;-72
2023/04/15 05:58:06;;;;;;;5.82;2.53;;;3.30;99.90;;;;;;5069685;28;20194;-71
2023/04/15 06:00:31;;;;;;;3.20;2.37;;;3.50;99.90;;;;;;5051394;28;20195;-72
2023/04/15 06:02:57;;;;;;;3.03;1.90;;;3.70;99.90;;;;;;5069478;28;20201;-74
2023/04/15 06:05:23;;;;;;;7.43;2.33;;;4.00;99.90;;;;;;5069542;28;20212;-72
2023/04/15 06:07:50;;;;;;;7.07;2.83;;;4.20;99.90;;;;;;5068025;28;20496;-71
2023/04/15 06:10:15;;;;;;;6.97;3.70;;;4.50;99.90;;;;;;5069197;28;20423;-72
2023/04/15 06:12:41;;;;;;;6.83;2.67;;;4.80;99.90;;;;;;5069269;28;20844;-71
2023/04/15 06:15:09;;;;;;;8.83;4.20;;;5.10;99.90;;;;;;5069132;28;20555;-71
2023/04/15 06:17:35;;;;;;;7.38;2.55;;;5.50;99.90;;;;;;5067519;28;20189;-71
2023/04/15 06:20:00;;;;;;;3.77;2.17;;;5.90;99.90;;;;;;5068847;28;20313;-71
2023/04/15 06:22:26;;;;;;;6.90;2.10;;;6.40;99.90;;;;;;5068806;28;20522;-71
2023/04/15 06:24:51;;;;;;;6.73;2.57;;;6.90;99.90;;;;;;5068820;28;20189;-71
2023/04/15 06:27:17;;;;;;;3.73;2.00;;;7.60;99.90;;;;;;5067448;28;20327;-71
2023/04/15 06:29:43;;;;;;;5.33;3.00;;;8.10;99.90;;;;;;5069045;28;20186;-71
2023/04/15 06:32:09;;;;;;;14.57;3.00;;;8.50;99.90;;;;;;5069186;28;20421;-72
2023/04/15 06:34:35;;;;;;;5.83;2.70;;;8.90;99.90;;;;;;5069133;28;20178;-71
2023/04/15 06:37:01;;;;;;;5.83;3.37;;;8.90;99.90;;;;;;5069054;28;20413;-71
2023/04/15 06:39:26;;;;;;;7.90;2.53;;;9.00;99.90;;;;;;5069105;28;20206;-71
2023/04/15 06:41:52;;;;;;;9.73;3.13;;;9.20;99.90;;;;;;5069211;28;20192;-70
2023/04/15 06:44:18;;;;;;;8.27;3.97;;;9.20;99.90;;;;;;5069210;28;20202;-71
2023/04/15 06:46:43;;;;;;;5.47;3.07;;;9.20;99.90;;;;;;5067929;28;20214;-71
2023/04/15 06:49:10;;;;;;;7.10;3.90;;;9.20;99.90;;;;;;5075230;28;20652;-71
2023/04/15 06:51:36;;;;;;;8.13;4.23;;;9.40;99.90;;;;;;5075220;28;20200;-71
2023/04/15 06:54:04;;;;;;;7.87;4.10;;;9.50;99.90;;;;;;5075018;28;21033;-71
2023/04/15 06:56:33;;;;;;;10.77;6.40;;;9.60;99.90;;;;;;5075281;28;20424;-71
2023/04/15 06:58:59;;;;;;;15.33;6.07;;;9.50;99.90;;;;;;5074963;28;20422;-71
2023/04/15 07:01:24;;;;;;;16.63;5.53;;;9.50;99.90;;;;;;5075193;28;20429;-71
2023/04/15 07:03:50;;;;;;;23.67;11.83;;;9.60;99.90;;;;;;5075078;28;20214;-71
2023/04/15 07:06:16;;;;;;;25.80;11.17;;;9.60;99.90;;;;;;5075020;28;20467;-71
2023/04/15 07:08:41;;;;;;;29.00;13.00;;;9.60;99.90;;;;;;5075022;28;20186;-71
2023/04/15 07:11:07;;;;;;;32.70;15.03;;;9.60;99.90;;;;;;5075223;28;20240;-71
2023/04/15 07:13:33;;;;;;;19.83;9.10;;;9.60;99.90;;;;;;5074811;28;20565;-71
2023/04/15 07:15:59;;;;;;;18.57;7.80;;;9.60;99.90;;;;;;5075062;28;20427;-71
2023/04/15 07:18:24;;;;;;;16.30;7.27;;;9.70;99.90;;;;;;5074992;28;20281;-71
2023/04/15 07:20:50;;;;;;;19.07;6.60;;;9.90;99.90;;;;;;5090264;28;20219;-72
2023/04/15 07:23:16;;;;;;;12.93;6.47;;;10.10;99.90;;;;;;5074939;28;20205;-71
2023/04/15 07:25:41;;;;;;;12.37;6.47;;;10.30;99.90;;;;;;5074621;28;20214;-72
2023/04/15 07:28:07;;;;;;;11.03;5.43;;;10.20;99.90;;;;;;5090314;28;20177;-71
2023/04/15 07:30:33;;;;;;;7.10;4.70;;;10.40;99.90;;;;;;5073436;28;20194;-72
2023/04/15 07:32:59;;;;;;;8.93;4.03;;;10.40;99.90;;;;;;5074852;28;20208;-71
2023/04/15 07:35:25;;;;;;;10.70;4.97;;;10.40;99.90;;;;;;5074957;28;20422;-71
2023/04/15 07:37:51;;;;;;;18.10;5.20;;;10.30;99.90;;;;;;5073579;28;20185;-72
2023/04/15 07:40:17;;;;;;;11.17;5.43;;;10.30;99.90;;;;;;5074640;28;20458;-71
2023/04/15 07:42:43;;;;;;;9.97;3.93;;;10.30;99.90;;;;;;5073150;28;20210;-71
2023/04/15 07:45:09;;;;;;;7.10;4.13;;;10.20;99.90;;;;;;5074461;28;21041;-71
2023/04/15 07:47:35;;;;;;;6.67;4.90;;;10.40;99.90;;;;;;5072771;28;20784;-71
2023/04/15 07:50:01;;;;;;;12.83;4.80;;;10.50;99.90;;;;;;5074449;28;20909;-72
2023/04/15 07:52:27;;;;;;;4.83;3.20;;;10.50;99.90;;;;;;5073891;28;20523;-71
2023/04/15 07:54:52;;;;;;;5.13;3.43;;;10.60;99.90;;;;;;5073033;28;20414;-71
2023/04/15 07:57:18;;;;;;;7.67;3.50;;;10.70;99.90;;;;;;5074733;28;20795;-71
2023/04/15 07:59:44;;;;;;;6.27;3.80;;;10.70;99.90;;;;;;5069851;28;20314;-71
2023/04/15 08:02:10;;;;;;;7.13;3.40;;;10.90;99.90;;;;;;5071278;28;20527;-72
2023/04/15 08:04:36;;;;;;;5.63;4.50;;;10.80;99.90;;;;;;5069983;28;20425;-72
2023/04/15 08:07:02;;;;;;;10.70;3.70;;;11.00;99.90;;;;;;5071343;28;20486;-71
2023/04/15 08:09:28;;;;;;;6.33;3.90;;;11.20;99.90;;;;;;5071268;28;20181;-72
2023/04/15 08:11:55;;;;;;;6.23;4.03;;;11.20;99.90;;;;;;5071159;28;20435;-72
2023/04/15 08:14:21;;;;;;;10.77;4.80;;;11.50;99.90;;;;;;5071095;28;20974;-72
2023/04/15 08:16:46;;;;;;;11.47;3.20;;;11.80;99.90;;;;;;5069979;28;20465;-71
2023/04/15 08:19:12;;;;;;;3.37;2.53;;;11.80;95.20;;;;;;5071250;28;20188;-71
2023/04/15 08:21:37;;;;;;;6.63;2.80;;;11.80;96.50;;;;;;5069771;28;20188;-71
2023/04/15 08:24:03;;;;;;;11.20;3.40;;;11.80;96.40;;;;;;5052739;28;20877;-71
2023/04/15 08:26:29;;;;;;;11.53;3.60;;;11.80;96.40;;;;;;5071129;28;20209;-71
2023/04/15 08:28:54;;;;;;;7.00;3.10;;;11.90;96.50;;;;;;5071174;28;20174;-71
2023/04/15 08:31:20;;;;;;;7.07;3.70;;;12.10;95.50;;;;;;5070954;28;20200;-71
2023/04/15 08:33:46;;;;;;;8.50;4.10;;;12.20;95.30;;;;;;5069191;28;20588;-71
2023/04/15 08:36:12;;;;;;;6.37;2.60;;;12.30;94.10;;;;;;5070767;28;20430;-71
2023/04/15 08:38:38;;;;;;;3.30;3.00;;;12.50;95.70;;;;;;5069127;28;20727;-71
2023/04/15 08:41:10;;;;;;;6.40;3.60;;;12.60;93.40;;;;;;5070687;28;20527;-71
2023/04/15 08:43:45;;;;;;;8.40;3.30;;;12.80;93.40;;;;;;5070584;28;20251;-71
2023/04/15 08:46:12;;;;;;;6.40;3.57;;;13.10;93.90;;;;;;5070702;28;20467;-71
2023/04/15 08:48:39;;;;;;;3.90;2.20;;;13.20;88.90;;;;;;5068816;28;20512;-70
2023/04/15 08:51:06;;;;;;;5.27;2.13;;;13.50;87.00;;;;;;5069110;28;20427;-71
2023/04/15 08:53:32;;;;;;;2.83;1.53;;;13.80;83.90;;;;;;5070553;28;20456;-71
2023/04/15 08:56:00;;;;;;;6.97;1.97;;;14.00;83.30;;;;;;5068979;28;20438;-71
2023/04/15 08:58:26;;;;;;;3.60;1.77;;;14.40;80.50;;;;;;5068994;28;20869;-71
2023/04/15 09:00:52;;;;;;;9.03;2.00;;;14.80;81.70;;;;;;5070390;28;20417;-71
2023/04/15 09:03:18;;;;;;;3.47;1.23;;;15.30;77.70;;;;;;5068921;28;20491;-71
2023/04/15 09:05:45;;;;;;;7.80;1.63;;;15.50;72.80;;;;;;5069975;28;20581;-71
2023/04/15 09:08:11;;;;;;;4.77;1.80;;;15.90;74.30;;;;;;5070093;28;20800;-72
2023/04/15 09:10:37;;;;;;;8.20;1.67;;;15.90;70.70;;;;;;5067597;28;20418;-72
2023/04/15 09:13:03;;;;;;;5.33;2.10;;;16.10;67.50;;;;;;5068697;28;20620;-71
2023/04/15 09:15:31;;;;;;;4.87;1.87;;;16.30;69.20;;;;;;5070034;28;20434;-72
2023/04/15 09:17:56;;;;;;;6.33;2.13;;;16.80;68.30;;;;;;5069968;28;20418;-71
2023/04/15 09:20:22;;;;;;;4.53;1.67;;;17.20;67.00;;;;;;5070022;28;20432;-71
2023/04/15 09:22:49;;;;;;;3.73;1.63;;;17.70;67.20;;;;;;5070015;28;20199;-71
2023/04/15 09:25:17;;;;;;;4.70;1.97;;;18.20;63.70;;;;;;5085570;28;20409;-71
2023/04/15 09:27:50;;;;;;;5.93;2.17;;;18.40;60.20;;;;;;5070117;28;20426;-70
2023/04/15 09:30:16;;;;;;;3.77;1.83;;;18.40;59.70;;;;;;5070304;28;20415;-71
2023/04/15 09:32:52;;;;;;;8.90;2.00;;;18.70;61.60;;;;;;5085575;28;20460;-71
2023/04/15 09:35:19;;;;;;;4.73;1.97;;;19.00;59.30;;;;;;5068807;28;20930;-70
2023/04/15 09:37:45;;;;;;;4.00;1.43;;;19.20;59.30;;;;;;5070390;28;20436;-71
2023/04/15 09:40:11;;;;;;;7.43;1.30;;;19.20;58.20;;;;;;5070234;28;20442;-71
2023/04/15 09:42:53;;;;;;;4.50;1.73;;;18.90;58.70;;;;;;5070077;28;20209;-70
2023/04/15 09:45:20;;;;;;;6.20;1.90;;;18.60;56.10;;;;;;5085368;28;20939;-72
2023/04/15 09:47:45;;;;;;;4.70;1.60;;;18.50;57.60;;;;;;5070155;28;20909;-72
2023/04/15 09:50:11;;;;;;;2.77;1.83;;;18.10;57.50;;;;;;5071268;28;20428;-72
2023/04/15 09:52:42;;;;;;;5.30;1.93;;;17.90;58.70;;;;;;5070679;28;20206;-72
2023/04/15 09:55:08;;;;;;;6.80;2.50;;;18.20;58.60;;;;;;5069536;28;20218;-72
2023/04/15 09:57:35;;;;;;;3.63;1.60;;;18.20;58.50;;;;;;5069485;28;20458;-71
2023/04/15 10:00:05;;;;;;;3.13;2.03;;;18.00;57.70;;;;;;5068101;28;20507;-72
2023/04/15 10:02:31;;;;;;;2.23;1.70;;;17.60;57.80;;;;;;5069499;28;20855;-72
2023/04/15 10:04:57;;;;;;;3.80;1.93;;;17.20;58.20;;;;;;5069429;28;20414;-71
2023/04/15 10:07:25;;;;;;;5.63;1.90;;;16.70;58.80;;;;;;5068197;28;20559;-71
2023/04/15 10:09:51;;;;;;;3.33;1.40;;;16.50;58.80;;;;;;5069791;28;20419;-71
2023/04/15 10:12:18;;;;;;;12.10;2.07;;;16.20;59.80;;;;;;5074740;28;20411;-71
2023/04/15 10:14:51;;;;;;;6.87;1.87;;;16.30;60.50;;;;;;5083906;28;20415;-71
2023/04/15 10:17:20;;;;;;;4.70;2.00;;;16.70;62.10;;;;;;5082753;28;20501;-71
2023/04/15 10:19:47;;;;;;;10.03;1.97;;;16.80;61.30;;;;;;5079480;28;20450;-70
2023/04/15 10:22:13;;;;;;;4.10;2.00;;;17.00;60.60;;;;;;5094319;28;20429;-71
2023/04/15 10:24:39;;;;;;;6.77;2.73;;;17.10;60.10;;;;;;5076454;28;20432;-71
2023/04/15 10:27:05;;;;;;;8.57;2.60;;;17.00;60.60;;;;;;5075537;28;20837;-71
2023/04/15 10:29:31;;;;;;;3.63;1.90;;;17.20;60.40;;;;;;5075170;28;20191;-71
2023/04/15 10:31:59;;;;;;;4.10;2.00;;;17.30;60.60;;;;;;5071804;28;20491;-72
2023/04/15 10:34:25;;;;;;;4.77;2.50;;;17.50;62.00;;;;;;5072618;28;20501;-72
2023/04/15 10:36:56;;;;;;;4.10;2.40;;;17.70;63.60;;;;;;5055027;28;20434;-72
2023/04/15 10:39:50;;;;;;;8.07;2.70;;;17.30;60.30;;;;;;5073853;28;21249;-71
2023/04/15 10:42:18;;;;;;;3.50;2.60;;;17.10;61.70;;;;;;5072238;28;20965;-71
2023/04/15 10:44:48;;;;;;;3.20;2.20;;;16.70;60.70;;;;;;5073470;28;20926;-71
2023/04/15 10:47:19;;;;;;;5.77;2.60;;;16.50;63.40;;;;;;5073998;28;20462;-71
2023/04/15 10:49:51;;;;;;;6.10;2.67;;;16.70;64.50;;;;;;5071939;28;20421;-71
2023/04/15 10:52:22;;;;;;;4.17;2.20;;;16.50;63.00;;;;;;5070061;28;20425;-71
2023/04/15 10:54:47;;;;;;;3.27;2.33;;;16.50;61.00;;;;;;5071650;28;20397;-71
2023/04/15 10:57:22;;;;;;;4.33;2.07;;;16.40;57.90;;;;;;5052223;28;20528;-71
2023/04/15 11:00:10;;;;;;;3.80;2.43;;;17.00;60.20;;;;;;5071537;28;20179;-71
2023/04/15 11:03:06;;;;;;;2.40;2.00;;;17.30;58.60;;;;;;5071435;28;20465;-71
2023/04/15 11:05:52;;;;;;;4.50;2.60;;;17.90;60.80;;;;;;5071631;28;20905;-71
2023/04/15 11:08:19;;;;;;;5.13;3.20;;;17.60;59.20;;;;;;5072390;28;20426;-72
2023/04/15 11:10:44;;;;;;;9.83;2.80;;;17.20;58.30;;;;;;5073282;28;21178;-71
2023/04/15 11:13:10;;;;;;;8.77;2.33;;;17.00;59.40;;;;;;5067964;28;20452;-71
2023/04/15 11:15:37;;;;;;;4.57;1.97;;;16.80;57.50;;;;;;5069315;28;20189;-71
2023/04/15 11:18:08;;;;;;;5.80;2.23;;;16.60;55.30;;;;;;5069133;28;20242;-71
2023/04/15 11:20:35;;;;;;;7.43;2.43;;;16.60;56.10;;;;;;5068524;28;20447;-71
2023/04/15 11:23:00;;;;;;;3.40;2.03;;;16.60;56.90;;;;;;5068331;28;21083;-71
2023/04/15 11:25:31;;;;;;;3.60;1.60;;;16.80;54.20;;;;;;5066799;28;20563;-71
2023/04/15 11:27:58;;;;;;;8.77;1.60;;;17.00;53.50;;;;;;5068080;28;20230;-71
2023/04/15 11:30:29;;;;;;;2.90;1.60;;;16.80;51.90;;;;;;5068177;28;20433;-72
2023/04/15 11:32:58;;;;;;;2.17;1.30;;;16.40;52.10;;;;;;5068174;28;20439;-72
2023/04/15 11:35:24;;;;;;;7.67;2.20;;;16.60;54.30;;;;;;5070998;28;20413;-72
2023/04/15 11:37:50;;;;;;;4.27;1.77;;;17.00;55.80;;;;;;5070257;28;20432;-72
2023/04/15 11:40:21;;;;;;;8.67;3.00;;;17.00;53.30;;;;;;5071769;28;20491;-72
2023/04/15 11:43:05;;;;;;;3.93;2.53;;;17.10;53.70;;;;;;5071937;28;20219;-72
2023/04/15 11:45:31;;;;;;;4.63;2.30;;;17.00;53.80;;;;;;5071727;28;20488;-72
2023/04/15 11:48:10;;;;;;;2.20;1.73;;;16.90;55.00;;;;;;5071918;28;20416;-72
2023/04/15 11:50:39;;;;;;;3.50;2.00;;;17.10;54.80;;;;;;5070792;28;20739;-72
2023/04/15 11:53:06;;;;;;;4.20;1.70;;;17.20;54.30;;;;;;5071908;28;20439;-72
2023/04/15 11:55:45;;;;;;;3.87;1.90;;;16.80;54.00;;;;;;5072169;28;20536;-72
2023/04/15 11:58:11;;;;;;;3.37;1.90;;;16.50;54.20;;;;;;5071942;28;20401;-71
2023/04/15 12:00:38;;;;;;;8.87;2.37;;;16.40;54.60;;;;;;5071763;28;20920;-72
2023/04/15 12:03:12;;;;;;;3.67;2.40;;;16.50;55.10;;;;;;5069806;28;20222;-72
2023/04/15 12:06:04;;;;;;;5.40;2.63;;;16.50;56.50;;;;;;5071276;28;20457;-72
2023/04/15 12:09:08;;;;;;;6.43;3.23;;;16.20;55.70;;;;;;5069955;28;20414;-72
2023/04/15 12:11:37;;;;;;;5.00;2.97;;;15.70;56.50;;;;;;5071226;28;21197;-72
2023/04/15 12:14:11;;;;;;;11.07;2.80;;;15.50;57.10;;;;;;5071139;28;20444;-72
2023/04/15 12:16:45;;;;;;;7.43;3.00;;;15.40;59.00;;;;;;5069760;28;20422;-72
2023/04/15 12:19:13;;;;;;;5.97;3.40;;;15.20;59.80;;;;;;5071363;28;20499;-72
2023/04/15 12:21:43;;;;;;;4.63;2.70;;;15.10;59.30;;;;;;5086922;28;20410;-72
2023/04/15 12:24:11;;;;;;;8.37;3.57;;;15.00;60.10;;;;;;5071606;28;20425;-72
2023/04/15 12:26:37;;;;;;;8.83;2.70;;;15.40;61.20;;;;;;5071404;28;20461;-73
2023/04/15 12:29:05;;;;;;;9.33;3.23;;;15.70;60.60;;;;;;5071482;28;20785;-72
2023/04/15 12:31:31;;;;;;;4.87;3.33;;;16.20;60.00;;;;;;5070311;28;20430;-72
2023/04/15 12:33:59;;;;;;;8.87;2.90;;;16.70;58.60;;;;;;5071503;28;20431;-71
2023/04/15 12:36:25;;;;;;;10.63;3.40;;;16.60;58.20;;;;;;5071364;28;20819;-71
2023/04/15 12:38:50;;;;;;;8.43;3.20;;;16.50;58.00;;;;;;5071166;28;20426;-73
2023/04/15 12:41:16;;;;;;;4.50;2.37;;;16.30;59.00;;;;;;5071214;28;20199;-72
2023/04/15 12:43:45;;;;;;;7.20;3.00;;;16.00;58.20;;;;;;5070986;28;20203;-72
2023/04/15 12:46:12;;;;;;;9.40;3.60;;;15.10;60.60;;;;;;5070351;28;20980;-71
2023/04/15 12:48:37;;;;;;;8.80;3.63;;;14.30;70.80;;;;;;5070989;28;20418;-71
2023/04/15 12:51:03;;;;;;;6.53;4.70;;;13.70;90.00;;;;;;5070522;28;20598;-71